createdAt,value
2019-02-11T00:01:11.477Z,24.50
2019-02-11T00:03:39.981Z,25.20
2019-02-11T00:06:08.485Z,26.50
2019-02-11T00:08:37.192Z,26.00
2019-02-11T00:11:05.795Z,25.00
2019-02-11T00:13:34.339Z,25.40
2019-02-11T00:16:03.017Z,25.00
2019-02-11T00:18:31.652Z,25.40
2019-02-11T00:21:00.152Z,24.70
2019-02-11T00:23:29.077Z,25.30
2019-02-11T00:25:57.635Z,24.60
2019-02-11T00:28:26.563Z,25.00
2019-02-11T00:30:55.234Z,24.90
2019-02-11T00:33:23.730Z,25.20
2019-02-11T00:35:52.233Z,24.40
2019-02-11T00:38:20.761Z,25.50
2019-02-11T00:40:49.251Z,25.20
2019-02-11T00:43:19.446Z,25.90
2019-02-11T00:45:48.134Z,24.70
2019-02-11T00:48:16.643Z,24.20
2019-02-11T00:50:45.273Z,25.10
2019-02-11T00:53:13.870Z,24.80
2019-02-11T00:55:42.442Z,25.90
2019-02-11T00:58:11.098Z,26.00
2019-02-11T01:00:39.830Z,26.60
2019-02-11T01:03:08.395Z,27.50
2019-02-11T01:05:37.023Z,27.90
2019-02-11T01:08:05.629Z,27.60
2019-02-11T01:10:34.196Z,27.80
2019-02-11T01:13:02.702Z,27.00
2019-02-11T01:15:31.318Z,26.60
2019-02-11T01:17:59.883Z,26.90
2019-02-11T01:20:28.437Z,27.30
2019-02-11T01:22:57.032Z,27.70
2019-02-11T01:25:25.661Z,28.70
2019-02-11T01:27:54.300Z,29.20
2019-02-11T01:30:22.934Z,28.30
2019-02-11T01:32:51.503Z,27.70
2019-02-11T01:35:19.992Z,27.90
2019-02-11T01:37:48.979Z,27.90
2019-02-11T01:40:17.535Z,27.90
2019-02-11T01:42:46.089Z,26.20
2019-02-11T01:45:14.924Z,25.20
2019-02-11T01:47:43.605Z,24.40
2019-02-11T01:50:12.933Z,24.80
2019-02-11T01:52:41.557Z,24.00
2019-02-11T01:55:10.125Z,23.70
2019-02-11T01:57:38.697Z,23.30
2019-02-11T02:00:10.564Z,23.70
2019-02-11T02:02:39.195Z,24.00
2019-02-11T02:05:08.855Z,24.10
2019-02-11T02:07:37.388Z,24.10
2019-02-11T02:10:08.865Z,23.50
2019-02-11T02:12:37.429Z,23.30
2019-02-11T02:15:07.609Z,23.30
2019-02-11T02:17:36.104Z,23.50
2019-02-11T02:20:07.442Z,23.80
2019-02-11T02:22:36.063Z,24.20
2019-02-11T02:25:06.344Z,23.90
2019-02-11T02:27:34.980Z,24.10
2019-02-11T02:30:03.923Z,24.00
2019-02-11T02:32:32.410Z,23.90
2019-02-11T02:35:01.049Z,23.70
2019-02-11T02:37:29.642Z,23.50
2019-02-11T02:39:58.202Z,24.00
2019-02-11T02:42:26.832Z,25.10
2019-02-11T02:44:55.509Z,26.60
2019-02-11T02:47:24.137Z,26.60
2019-02-11T02:49:52.769Z,26.00
2019-02-11T02:52:21.295Z,27.30
2019-02-11T02:54:49.927Z,27.90
2019-02-11T02:57:18.610Z,29.00
2019-02-11T02:59:47.149Z,29.20
2019-02-11T03:02:15.818Z,29.80
2019-02-11T03:04:44.338Z,30.90
2019-02-11T03:07:12.937Z,31.10
2019-02-11T03:09:41.491Z,31.40
2019-02-11T03:12:09.996Z,31.10
2019-02-11T03:14:38.666Z,30.70
2019-02-11T03:17:07.286Z,31.10
2019-02-11T03:19:35.917Z,31.40
2019-02-11T03:22:04.547Z,32.20
2019-02-11T03:24:33.133Z,31.60
2019-02-11T03:27:01.699Z,29.60
2019-02-11T03:29:30.236Z,30.50
2019-02-11T03:31:59.980Z,30.20
2019-02-11T03:34:28.860Z,30.50
2019-02-11T03:36:57.520Z,30.60
2019-02-11T03:39:26.015Z,29.70
2019-02-11T03:41:54.656Z,28.30
2019-02-11T03:44:23.316Z,28.70
2019-02-11T03:46:51.871Z,28.20
2019-02-11T03:49:20.793Z,27.50
2019-02-11T03:51:49.332Z,26.80
2019-02-11T03:54:17.877Z,27.00
2019-02-11T03:56:46.454Z,27.40
2019-02-11T03:59:15.454Z,25.90
2019-02-11T04:01:44.091Z,25.50
2019-02-11T04:04:12.719Z,25.50
2019-02-11T04:06:41.322Z,25.20
2019-02-11T04:09:09.966Z,24.60
2019-02-11T04:11:38.606Z,24.50
2019-02-11T04:14:07.219Z,23.60
2019-02-11T04:16:35.839Z,23.40
2019-02-11T04:19:04.475Z,23.60
2019-02-11T04:21:33.142Z,23.20
2019-02-11T04:24:01.688Z,23.20
2019-02-11T04:26:31.838Z,23.10
2019-02-11T04:29:00.442Z,22.90
2019-02-11T04:31:29.070Z,23.60
2019-02-11T04:33:58.298Z,23.40
2019-02-11T04:36:27.037Z,23.10
2019-02-11T04:38:55.599Z,23.60
2019-02-11T04:41:24.147Z,24.80
2019-02-11T04:43:52.813Z,25.80
2019-02-11T04:46:21.768Z,27.40
2019-02-11T04:48:50.330Z,28.50
2019-02-11T04:51:18.995Z,29.90
2019-02-11T04:53:47.625Z,30.90
2019-02-11T04:56:16.175Z,31.00
2019-02-11T04:58:44.701Z,32.80
2019-02-11T05:01:13.333Z,33.40
2019-02-11T05:03:41.844Z,32.90
2019-02-11T05:06:10.488Z,34.10
2019-02-11T05:08:39.043Z,35.10
2019-02-11T05:11:07.531Z,35.00
2019-02-11T05:13:36.069Z,35.70
2019-02-11T05:16:04.633Z,35.00
2019-02-11T05:18:33.183Z,35.50
2019-02-11T05:21:01.791Z,34.50
2019-02-11T05:23:30.365Z,35.40
2019-02-11T05:25:58.917Z,35.50
2019-02-11T05:28:27.520Z,36.10
2019-02-11T05:30:56.082Z,36.10
2019-02-11T05:33:24.647Z,35.50
2019-02-11T05:35:53.189Z,35.00
2019-02-11T05:38:21.683Z,35.10
2019-02-11T05:40:50.248Z,33.20
2019-02-11T05:43:18.838Z,33.50
2019-02-11T05:45:47.401Z,32.80
2019-02-11T05:48:15.965Z,33.00
2019-02-11T05:50:44.570Z,32.70
2019-02-11T05:53:13.069Z,33.80
2019-02-11T05:55:41.953Z,33.30
2019-02-11T05:58:10.479Z,33.30
2019-02-11T06:00:39.048Z,33.60
2019-02-11T06:03:09.546Z,33.20
2019-02-11T06:05:37.807Z,34.00
2019-02-11T06:08:06.375Z,34.50
2019-02-11T06:10:35.002Z,35.50
2019-02-11T06:13:03.601Z,38.20
2019-02-11T06:15:32.167Z,40.20
2019-02-11T06:18:00.744Z,38.30
2019-02-11T06:20:29.273Z,34.00
2019-02-11T06:22:57.768Z,33.00
2019-02-11T06:25:26.358Z,32.50
2019-02-11T06:27:54.879Z,32.10
2019-02-11T06:30:23.464Z,32.10
2019-02-11T06:32:52.121Z,31.80
2019-02-11T06:35:20.846Z,32.00
2019-02-11T06:37:49.371Z,31.20
2019-02-11T06:40:17.938Z,30.60
2019-02-11T06:42:46.573Z,30.20
2019-02-11T06:45:15.087Z,30.40
2019-02-11T06:47:43.602Z,30.90
2019-02-11T06:50:16.151Z,30.90
2019-02-11T06:52:44.641Z,31.40
2019-02-11T06:55:13.219Z,32.00
2019-02-11T06:57:41.820Z,32.00
2019-02-11T07:00:16.607Z,31.90
2019-02-11T07:02:45.209Z,32.20
2019-02-11T07:05:13.896Z,32.40
2019-02-11T07:07:42.541Z,31.50
2019-02-11T07:10:11.600Z,30.50
2019-02-11T07:12:40.128Z,30.20
2019-02-11T07:15:11.503Z,31.20
2019-02-11T07:17:40.060Z,31.00
2019-02-11T07:20:10.165Z,30.40
2019-02-11T07:22:38.733Z,29.90
2019-02-11T07:25:08.494Z,29.80
2019-02-11T07:27:37.100Z,30.30
2019-02-11T07:30:08.815Z,30.20
2019-02-11T07:32:37.384Z,31.90
2019-02-11T07:35:06.000Z,31.80
2019-02-11T07:37:34.947Z,30.00
2019-02-11T07:40:04.706Z,30.20
2019-02-11T07:42:34.883Z,30.50
2019-02-11T07:45:04.724Z,30.30
2019-02-11T07:47:33.358Z,30.10
2019-02-11T07:50:02.026Z,30.00
2019-02-11T07:52:30.585Z,29.80
2019-02-11T07:54:59.212Z,29.70
2019-02-11T07:57:27.820Z,31.60
2019-02-11T07:59:57.346Z,33.10
2019-02-11T08:02:25.962Z,33.50
2019-02-11T08:04:54.575Z,33.90
2019-02-11T08:07:23.206Z,34.00
2019-02-11T08:09:51.771Z,34.30
2019-02-11T08:12:20.377Z,34.70
2019-02-11T08:14:49.017Z,35.00
2019-02-11T08:17:17.647Z,34.30
2019-02-11T08:19:46.250Z,34.40
2019-02-11T08:22:14.956Z,36.00
2019-02-11T08:24:43.516Z,36.30
2019-02-11T08:27:12.192Z,47.00
2019-02-11T08:29:40.766Z,43.80
2019-02-11T08:32:09.336Z,44.30
2019-02-11T08:34:38.027Z,42.50
2019-02-11T08:37:07.161Z,41.90
2019-02-11T08:39:35.785Z,42.30
2019-02-11T08:42:04.519Z,44.10
2019-02-11T08:44:33.674Z,45.00
2019-02-11T08:47:02.787Z,45.20
2019-02-11T08:49:31.390Z,42.00
2019-02-11T08:51:59.960Z,42.30
2019-02-11T08:54:28.530Z,43.50
2019-02-11T08:56:57.488Z,43.10
2019-02-11T08:59:26.111Z,41.90
2019-02-11T09:01:54.701Z,42.50
2019-02-11T09:04:23.388Z,42.40
2019-02-11T09:06:51.964Z,42.70
2019-02-11T09:09:20.588Z,41.50
2019-02-11T09:11:49.201Z,41.20
2019-02-11T09:14:17.818Z,41.90
2019-02-11T09:16:46.497Z,39.60
2019-02-11T09:19:15.166Z,40.90
2019-02-11T09:21:43.807Z,42.00
2019-02-11T09:24:12.325Z,43.30
2019-02-11T09:26:41.389Z,42.80
2019-02-11T09:29:09.959Z,41.80
2019-02-11T09:31:38.520Z,41.70
2019-02-11T09:34:07.191Z,39.50
2019-02-11T09:36:35.757Z,36.80
2019-02-11T09:39:05.488Z,37.50
2019-02-11T09:41:34.169Z,36.40
2019-02-11T09:44:03.149Z,36.10
2019-02-11T09:46:31.920Z,36.00
2019-02-11T09:49:00.688Z,36.80
2019-02-11T09:51:29.408Z,38.40
2019-02-11T09:53:58.202Z,39.00
2019-02-11T09:56:27.027Z,39.00
2019-02-11T09:58:55.687Z,40.70
2019-02-11T10:01:24.693Z,40.30
2019-02-11T10:03:53.386Z,38.50
2019-02-11T10:06:21.990Z,37.10
2019-02-11T10:08:50.479Z,36.20
2019-02-11T10:11:19.078Z,35.60
2019-02-11T10:13:47.645Z,35.90
2019-02-11T10:16:16.195Z,35.40
2019-02-11T10:18:44.807Z,34.50
2019-02-11T10:21:13.450Z,35.80
2019-02-11T10:23:41.941Z,36.00
2019-02-11T10:26:10.551Z,37.50
2019-02-11T10:28:39.536Z,36.80
2019-02-11T10:31:08.042Z,37.00
2019-02-11T10:33:36.639Z,37.10
2019-02-11T10:36:05.207Z,37.00
2019-02-11T10:38:36.431Z,36.30
2019-02-11T10:41:04.045Z,34.80
2019-02-11T10:43:32.549Z,34.50
2019-02-11T10:46:01.101Z,34.10
2019-02-11T10:48:29.889Z,33.90
2019-02-11T10:50:58.454Z,33.60
2019-02-11T10:53:27.007Z,32.60
2019-02-11T10:55:57.264Z,31.80
2019-02-11T10:58:25.756Z,31.40
2019-02-11T11:00:54.483Z,31.50
2019-02-11T11:03:23.156Z,33.40
2019-02-11T11:05:51.649Z,33.00
2019-02-11T11:08:20.199Z,32.40
2019-02-11T11:10:48.794Z,32.20
2019-02-11T11:13:17.286Z,32.60
2019-02-11T11:15:45.776Z,33.70
2019-02-11T11:18:14.385Z,33.20
2019-02-11T11:20:42.960Z,33.30
2019-02-11T11:23:11.460Z,32.80
2019-02-11T11:25:40.068Z,32.20
2019-02-11T11:28:08.627Z,33.10
2019-02-11T11:30:37.365Z,32.70
2019-02-11T11:33:06.053Z,32.60
2019-02-11T11:35:34.558Z,33.50
2019-02-11T11:38:03.116Z,34.10
2019-02-11T11:40:31.801Z,34.80
2019-02-11T11:43:00.437Z,34.10
2019-02-11T11:45:29.151Z,35.40
2019-02-11T11:47:57.697Z,36.50
2019-02-11T11:50:26.251Z,36.70
2019-02-11T11:52:54.823Z,36.30
2019-02-11T11:55:23.912Z,35.50
2019-02-11T11:57:52.820Z,34.40
2019-02-11T12:00:23.364Z,34.50
2019-02-11T12:03:01.959Z,34.10
2019-02-11T12:05:22.224Z,35.10
2019-02-11T12:07:50.793Z,35.30
2019-02-11T12:10:19.474Z,35.30
2019-02-11T12:12:48.055Z,35.70
2019-02-11T12:15:19.656Z,35.10
2019-02-11T12:17:48.351Z,36.50
2019-02-11T12:20:17.058Z,37.20
2019-02-11T12:22:45.637Z,38.40
2019-02-11T12:25:16.798Z,37.70
2019-02-11T12:27:45.358Z,35.20
2019-02-11T12:30:25.056Z,34.00
2019-02-11T12:32:55.415Z,33.60
2019-02-11T12:35:23.953Z,32.50
2019-02-11T12:37:52.562Z,32.30
2019-02-11T12:40:21.045Z,32.30
2019-02-11T12:42:52.853Z,35.00
2019-02-11T12:45:24.707Z,35.60
2019-02-11T12:47:53.307Z,36.50
2019-02-11T12:50:21.931Z,35.80
2019-02-11T12:52:50.602Z,34.20
2019-02-11T12:55:19.513Z,33.10
2019-02-11T12:57:48.065Z,31.70
2019-02-11T13:00:19.791Z,31.30
2019-02-11T13:02:48.491Z,33.50
2019-02-11T13:05:21.321Z,33.50
2019-02-11T13:07:47.571Z,32.40
2019-02-11T13:10:18.714Z,32.30
2019-02-11T13:12:47.254Z,31.80
2019-02-11T13:15:41.638Z,33.60
2019-02-11T13:17:47.116Z,33.50
2019-02-11T13:20:17.052Z,32.90
2019-02-11T13:22:45.668Z,34.00
2019-02-11T13:25:17.585Z,33.70
2019-02-11T13:27:46.573Z,33.60
2019-02-11T13:30:17.491Z,31.90
2019-02-11T13:32:47.086Z,32.10
2019-02-11T13:35:15.831Z,32.60
2019-02-11T13:37:44.649Z,32.00
2019-02-11T13:40:13.423Z,31.80
2019-02-11T13:42:42.003Z,32.30
2019-02-11T13:45:18.814Z,32.30
2019-02-11T13:47:57.967Z,32.90
2019-02-11T13:50:20.213Z,32.90
2019-02-11T13:52:48.979Z,32.60
2019-02-11T13:55:17.615Z,32.30
2019-02-11T13:57:46.187Z,31.90
2019-02-11T14:00:23.780Z,30.90
2019-02-11T14:02:57.255Z,32.40
2019-02-11T14:05:26.389Z,34.00
2019-02-11T14:07:54.936Z,35.50
2019-02-11T14:10:23.520Z,37.60
2019-02-11T14:12:52.088Z,38.30
2019-02-11T14:17:50.384Z,71.70
2019-02-11T14:25:16.618Z,56.00
2019-02-11T14:27:45.118Z,36.40
2019-02-11T14:30:21.480Z,37.70
2019-02-11T14:32:50.061Z,37.10
2019-02-11T14:35:19.741Z,37.70
2019-02-11T14:37:48.334Z,36.60
2019-02-11T14:40:17.019Z,35.90
2019-02-11T14:42:45.631Z,35.80
2019-02-11T14:45:16.230Z,36.50
2019-02-11T14:47:44.984Z,35.70
2019-02-11T14:50:13.622Z,34.80
2019-02-11T14:52:42.185Z,33.60
2019-02-11T14:55:11.261Z,32.90
2019-02-11T14:57:39.870Z,31.60
2019-02-11T15:00:15.356Z,33.00
2019-02-11T15:02:43.969Z,32.40
2019-02-11T15:05:14.504Z,34.00
2019-02-11T15:07:42.896Z,34.50
2019-02-11T15:10:12.732Z,38.40
2019-02-11T15:12:41.267Z,40.20
2019-02-11T15:15:11.116Z,42.70
2019-02-11T15:17:41.197Z,44.10
2019-02-11T15:20:14.587Z,45.30
2019-02-11T15:22:43.235Z,46.30
2019-02-11T15:25:13.685Z,45.10
2019-02-11T15:27:42.376Z,43.90
2019-02-11T15:30:13.414Z,42.90
2019-02-11T15:32:41.942Z,41.90
2019-02-11T15:35:11.431Z,43.20
2019-02-11T15:37:40.120Z,42.50
2019-02-11T15:40:20.237Z,40.90
2019-02-11T15:42:48.804Z,40.10
2019-02-11T15:45:17.421Z,38.80
2019-02-11T15:47:46.037Z,39.60
2019-02-11T15:50:17.831Z,41.70
2019-02-11T15:52:46.466Z,43.00
2019-02-11T15:55:20.996Z,43.60
2019-02-11T15:57:49.563Z,43.90
2019-02-11T16:00:20.671Z,43.50
2019-02-11T16:02:51.439Z,41.70
2019-02-11T16:05:19.523Z,40.50
2019-02-11T16:07:48.706Z,41.20
2019-02-11T16:10:23.369Z,41.70
2019-02-11T16:12:52.066Z,44.10
2019-02-11T16:15:20.679Z,43.60
2019-02-11T16:17:49.375Z,44.60
2019-02-11T16:20:18.016Z,44.20
2019-02-11T16:22:46.662Z,44.20
2019-02-11T16:25:15.878Z,41.80
2019-02-11T16:27:44.512Z,40.80
2019-02-11T16:30:15.184Z,40.10
2019-02-11T16:32:43.908Z,38.40
2019-02-11T16:35:14.069Z,38.20
2019-02-11T16:37:43.130Z,36.80
2019-02-11T16:40:14.782Z,35.70
2019-02-11T16:42:43.432Z,35.60
2019-02-11T16:45:12.024Z,35.30
2019-02-11T16:47:40.725Z,34.50
2019-02-11T16:50:13.454Z,35.10
2019-02-11T16:52:42.086Z,34.00
2019-02-11T16:55:11.867Z,33.00
2019-02-11T16:57:40.538Z,32.10
2019-02-11T17:00:17.680Z,30.70
2019-02-11T17:02:46.272Z,30.70
2019-02-11T17:05:15.033Z,30.00
2019-02-11T17:07:43.724Z,30.30
2019-02-11T17:10:13.874Z,30.60
2019-02-11T17:12:42.523Z,29.60
2019-02-11T17:15:16.196Z,29.20
2019-02-11T17:17:44.839Z,29.40
2019-02-11T17:20:14.787Z,29.70
2019-02-11T17:22:43.580Z,29.70
2019-02-11T17:25:12.835Z,29.70
2019-02-11T17:27:41.520Z,28.80
2019-02-11T17:30:36.517Z,28.70
2019-02-11T17:33:05.164Z,29.60
2019-02-11T17:35:33.730Z,29.70
2019-02-11T17:38:02.396Z,29.80
2019-02-11T17:40:31.044Z,30.30
2019-02-11T17:42:59.680Z,32.00
2019-02-11T17:45:32.299Z,32.70
2019-02-11T17:48:00.946Z,33.30
2019-02-11T17:50:31.159Z,33.40
2019-02-11T17:53:02.983Z,32.90
2019-02-11T17:55:31.932Z,32.90
2019-02-11T17:58:00.493Z,33.20
2019-02-11T18:00:36.513Z,33.00
2019-02-11T18:03:05.015Z,33.60
2019-02-11T18:05:36.801Z,34.50
2019-02-11T18:08:05.491Z,34.40
2019-02-11T18:10:34.422Z,34.90
2019-02-11T18:13:03.057Z,34.40
2019-02-11T18:15:31.650Z,35.40
2019-02-11T18:18:00.302Z,35.80
2019-02-11T18:20:28.943Z,36.20
2019-02-11T18:22:57.666Z,36.00
2019-02-11T18:25:27.167Z,36.70
2019-02-11T18:27:55.838Z,35.40
2019-02-11T18:30:24.516Z,34.30
2019-02-11T18:32:53.167Z,34.50
2019-02-11T18:35:22.706Z,36.30
2019-02-11T18:37:51.346Z,38.10
2019-02-11T18:40:20.892Z,38.10
2019-02-11T18:42:49.530Z,36.80
2019-02-11T18:45:18.529Z,37.60
2019-02-11T18:47:47.186Z,36.90
2019-02-11T18:50:16.106Z,37.60
2019-02-11T18:52:44.810Z,36.80
2019-02-11T18:55:17.753Z,37.70
2019-02-11T18:57:46.331Z,39.00
2019-02-11T19:00:20.885Z,39.60
2019-02-11T19:02:49.606Z,40.10
2019-02-11T19:05:19.346Z,41.40
2019-02-11T19:12:46.709Z,46.30
2019-02-11T19:17:45.955Z,59.40
2019-02-11T19:20:15.985Z,59.40
2019-02-11T19:30:12.614Z,60.70
2019-02-11T19:32:41.259Z,60.30
2019-02-11T19:35:09.919Z,61.20
2019-02-11T19:37:38.601Z,52.10
2019-02-11T19:40:10.696Z,53.40
2019-02-11T19:47:39.991Z,55.80
2019-02-11T19:50:13.741Z,51.10
2019-02-11T19:52:42.433Z,55.80
2019-02-11T19:57:39.857Z,50.80
2019-02-11T20:05:15.784Z,53.00
2019-02-11T20:10:21.469Z,53.90
2019-02-11T20:12:50.155Z,46.40
2019-02-11T20:15:24.386Z,47.00
2019-02-11T20:17:53.450Z,47.80
2019-02-11T20:20:23.714Z,48.00
2019-02-11T20:27:49.001Z,61.90
2019-02-11T20:35:24.978Z,65.10
2019-02-11T20:40:25.110Z,66.50
2019-02-11T20:42:59.499Z,59.30
2019-02-11T20:45:29.250Z,51.00
2019-02-11T20:47:57.799Z,59.30
2019-02-11T20:50:26.404Z,62.80
2019-02-11T20:52:55.465Z,60.30
2019-02-11T20:55:24.037Z,61.20
2019-02-11T20:57:58.185Z,59.50
2019-02-11T21:00:26.905Z,54.40
2019-02-11T21:02:55.555Z,56.40
2019-02-11T21:05:24.457Z,53.10
2019-02-11T21:07:53.125Z,53.40
2019-02-11T21:10:23.797Z,53.30
2019-02-11T21:15:20.745Z,57.50
2019-02-11T21:27:56.256Z,71.20
2019-02-11T21:30:24.829Z,57.50
2019-02-11T21:32:53.409Z,67.00
2019-02-11T21:35:22.084Z,66.40
2019-02-11T21:37:50.671Z,62.60
2019-02-11T21:40:19.322Z,62.30
2019-02-11T21:45:16.286Z,63.20
2019-02-11T21:47:44.922Z,65.50
2019-02-11T21:55:13.955Z,59.30
2019-02-11T21:57:42.572Z,57.90
2019-02-11T22:02:41.042Z,47.40
2019-02-11T22:05:09.723Z,41.40
2019-02-11T22:07:38.230Z,46.20
2019-02-11T22:10:09.987Z,42.00
2019-02-11T22:12:39.091Z,47.00
2019-02-11T22:15:09.233Z,56.70
2019-02-11T22:20:19.414Z,54.40
2019-02-11T22:22:48.047Z,47.10
2019-02-11T22:25:16.571Z,45.70
2019-02-11T22:30:15.514Z,47.00
2019-02-11T22:32:44.155Z,42.90
2019-02-11T22:35:12.821Z,40.80
2019-02-11T22:37:41.262Z,39.20
2019-02-11T22:40:13.297Z,38.00
2019-02-11T22:45:20.427Z,37.30
2019-02-11T22:47:49.039Z,38.30
2019-02-11T22:52:45.870Z,40.50
2019-02-11T22:55:15.542Z,39.30
2019-02-11T22:57:44.123Z,37.00
2019-02-11T23:00:47.908Z,39.60
2019-02-11T23:03:16.487Z,36.80
2019-02-11T23:05:45.125Z,41.20
2019-02-11T23:08:13.729Z,43.70
2019-02-11T23:13:11.079Z,50.90
2019-02-11T23:18:08.079Z,50.30
2019-02-11T23:23:04.886Z,48.00
2019-02-11T23:25:33.461Z,43.80
2019-02-11T23:28:01.954Z,48.50
2019-02-11T23:32:58.905Z,40.50
2019-02-11T23:35:27.536Z,41.00
2019-02-11T23:37:56.077Z,41.00
2019-02-11T23:40:24.702Z,38.50
2019-02-11T23:42:53.273Z,39.00
2019-02-11T23:45:22.803Z,36.20
2019-02-11T23:47:51.367Z,34.70
2019-02-11T23:50:20.063Z,33.80
2019-02-11T23:52:48.614Z,33.50
2019-02-11T23:55:17.255Z,32.40
2019-02-11T23:57:45.887Z,33.20
